createdAt,value
2023-05-04T00:02:05.042Z,2.00
2023-05-04T00:04:32.041Z,1.30
2023-05-04T00:06:59.286Z,1.70
2023-05-04T00:09:26.401Z,2.00
2023-05-04T00:11:53.345Z,1.20
2023-05-04T00:14:20.496Z,1.90
2023-05-04T00:16:47.488Z,1.10
2023-05-04T00:19:14.591Z,0.90
2023-05-04T00:21:41.512Z,1.40
2023-05-04T00:24:08.483Z,1.10
2023-05-04T00:26:35.429Z,1.20
2023-05-04T00:29:02.360Z,0.90
2023-05-04T00:31:29.272Z,1.40
2023-05-04T00:33:56.590Z,1.00
2023-05-04T00:36:23.602Z,1.10
2023-05-04T00:38:51.866Z,1.70
2023-05-04T00:41:19.750Z,1.10
2023-05-04T00:43:47.102Z,0.90
2023-05-04T00:46:14.660Z,1.30
2023-05-04T00:48:42.016Z,0.80
2023-05-04T00:51:10.028Z,0.40
2023-05-04T00:53:37.263Z,0.70
2023-05-04T00:56:04.793Z,0.90
2023-05-04T00:58:32.712Z,1.50
2023-05-04T01:00:59.766Z,0.80
2023-05-04T01:03:26.844Z,1.20
2023-05-04T01:06:16.836Z,1.40
2023-05-04T01:08:47.514Z,1.10
2023-05-04T01:11:21.364Z,0.50
2023-05-04T01:13:48.725Z,1.20
2023-05-04T01:16:15.840Z,1.50
2023-05-04T01:18:43.029Z,1.10
2023-05-04T01:21:10.067Z,1.40
2023-05-04T01:23:37.119Z,0.60
2023-05-04T01:26:24.749Z,0.70
2023-05-04T01:29:02.104Z,1.30
2023-05-04T01:31:29.124Z,1.10
2023-05-04T01:33:56.323Z,0.80
2023-05-04T01:36:23.372Z,1.10
2023-05-04T01:38:54.148Z,1.50
2023-05-04T01:41:21.898Z,0.70
2023-05-04T01:43:49.350Z,0.70
2023-05-04T01:46:16.339Z,1.30
2023-05-04T01:48:43.413Z,2.30
2023-05-04T01:51:10.465Z,2.80
2023-05-04T01:53:37.403Z,1.90
2023-05-04T01:56:04.439Z,2.00
2023-05-04T01:58:32.314Z,2.00
2023-05-04T02:00:59.600Z,1.40
2023-05-04T02:03:27.801Z,1.10
2023-05-04T02:05:54.987Z,1.10
2023-05-04T02:08:22.302Z,1.40
2023-05-04T02:10:49.216Z,0.80
2023-05-04T02:13:16.222Z,1.30
2023-05-04T02:15:43.183Z,0.90
2023-05-04T02:18:10.684Z,1.10
2023-05-04T02:20:37.735Z,1.20
2023-05-04T02:23:04.682Z,1.00
2023-05-04T02:25:31.910Z,1.10
2023-05-04T02:27:58.890Z,0.70
2023-05-04T02:30:25.758Z,1.30
2023-05-04T02:32:52.778Z,0.90
2023-05-04T02:35:19.723Z,1.40
2023-05-04T02:37:46.605Z,1.30
2023-05-04T02:40:14.147Z,1.00
2023-05-04T02:42:41.131Z,1.20
2023-05-04T02:45:08.666Z,0.80
2023-05-04T02:47:35.729Z,0.90
2023-05-04T02:50:03.311Z,1.30
2023-05-04T02:52:32.654Z,1.70
2023-05-04T02:55:00.747Z,0.50
2023-05-04T02:57:27.665Z,1.20
2023-05-04T02:59:54.668Z,1.60
2023-05-04T03:02:21.694Z,0.80
2023-05-04T03:04:48.803Z,1.30
2023-05-04T03:07:15.753Z,0.80
2023-05-04T03:09:43.213Z,1.50
2023-05-04T03:12:11.196Z,1.20
2023-05-04T03:14:38.118Z,0.60
2023-05-04T03:17:05.269Z,0.50
2023-05-04T03:19:32.627Z,1.00
2023-05-04T03:21:59.594Z,1.30
2023-05-04T03:24:26.918Z,0.50
2023-05-04T03:26:54.881Z,0.60
2023-05-04T03:29:22.129Z,1.00
2023-05-04T03:31:49.320Z,1.30
2023-05-04T03:34:21.774Z,1.10
2023-05-04T03:36:51.810Z,1.00
2023-05-04T03:39:18.757Z,0.70
2023-05-04T03:41:46.175Z,0.90
2023-05-04T03:44:13.358Z,1.10
2023-05-04T03:46:40.307Z,2.00
2023-05-04T03:49:07.412Z,1.30
2023-05-04T03:51:34.664Z,1.40
2023-05-04T03:54:02.108Z,0.90
2023-05-04T03:56:29.174Z,1.50
2023-05-04T03:58:57.444Z,0.90
2023-05-04T04:01:26.738Z,0.70
2023-05-04T04:03:53.894Z,1.10
2023-05-04T04:06:21.893Z,0.80
2023-05-04T04:08:48.903Z,1.10
2023-05-04T04:11:16.173Z,0.70
2023-05-04T04:13:43.309Z,1.50
2023-05-04T04:16:10.599Z,1.70
2023-05-04T04:18:37.551Z,1.60
2023-05-04T04:21:04.643Z,1.70
2023-05-04T04:23:31.692Z,1.30
2023-05-04T04:25:58.557Z,1.10
2023-05-04T04:28:25.646Z,0.80
2023-05-04T04:30:53.056Z,1.10
2023-05-04T04:33:20.216Z,0.90
2023-05-04T04:35:48.366Z,0.60
2023-05-04T04:38:15.641Z,1.00
2023-05-04T04:40:42.998Z,0.50
2023-05-04T04:43:10.340Z,0.90
2023-05-04T04:45:37.621Z,1.00
2023-05-04T04:48:04.856Z,1.10
2023-05-04T04:50:32.480Z,1.20
2023-05-04T04:53:00.152Z,1.10
2023-05-04T04:55:27.053Z,1.00
2023-05-04T04:57:54.671Z,2.00
2023-05-04T05:00:23.202Z,1.40
2023-05-04T05:02:51.075Z,1.80
2023-05-04T05:05:18.564Z,1.20
2023-05-04T05:07:45.593Z,0.70
2023-05-04T05:10:12.624Z,1.00
2023-05-04T05:12:39.662Z,1.30
2023-05-04T05:15:07.574Z,0.60
2023-05-04T05:17:35.885Z,1.30
2023-05-04T05:20:06.419Z,1.10
2023-05-04T05:22:33.736Z,1.50
2023-05-04T05:25:00.660Z,0.80
2023-05-04T05:27:27.798Z,1.70
2023-05-04T05:29:54.801Z,0.80
2023-05-04T05:32:21.765Z,1.70
2023-05-04T05:34:50.175Z,1.20
2023-05-04T05:37:17.672Z,0.90
2023-05-04T05:39:44.603Z,0.80
2023-05-04T05:42:12.148Z,0.60
2023-05-04T05:44:39.057Z,1.30
2023-05-04T05:47:05.960Z,1.20
2023-05-04T05:49:32.848Z,1.30
2023-05-04T05:51:59.985Z,0.50
2023-05-04T05:54:27.400Z,1.60
2023-05-04T05:56:54.368Z,0.70
2023-05-04T05:59:22.075Z,0.90
2023-05-04T06:01:49.223Z,1.50
2023-05-04T06:04:16.337Z,2.20
2023-05-04T06:06:45.766Z,1.00
2023-05-04T06:09:13.358Z,1.40
2023-05-04T06:11:40.848Z,1.00
2023-05-04T06:14:08.330Z,1.70
2023-05-04T06:16:35.822Z,1.20
2023-05-04T06:19:03.297Z,0.90
2023-05-04T06:21:30.213Z,1.40
2023-05-04T06:23:57.096Z,0.90
2023-05-04T06:26:24.082Z,1.60
2023-05-04T06:28:51.016Z,1.00
2023-05-04T06:31:18.601Z,0.80
2023-05-04T06:33:45.593Z,1.50
2023-05-04T06:36:13.644Z,1.80
2023-05-04T06:38:41.151Z,0.70
2023-05-04T06:41:08.263Z,1.10
2023-05-04T06:43:35.545Z,1.80
2023-05-04T06:46:03.712Z,1.70
2023-05-04T06:48:31.218Z,1.40
2023-05-04T06:50:58.825Z,1.50
2023-05-04T06:53:27.318Z,1.10
2023-05-04T06:55:54.669Z,0.80
2023-05-04T06:58:22.228Z,1.70
2023-05-04T07:00:49.282Z,0.80
2023-05-04T07:03:16.566Z,1.70
2023-05-04T07:05:45.517Z,0.80
2023-05-04T07:08:12.616Z,0.60
2023-05-04T07:10:39.586Z,0.80
2023-05-04T07:13:06.747Z,1.80
2023-05-04T07:15:34.114Z,2.30
2023-05-04T07:18:01.479Z,0.80
2023-05-04T07:20:28.602Z,1.30
2023-05-04T07:22:57.075Z,2.10
2023-05-04T07:25:25.142Z,1.00
2023-05-04T07:27:53.665Z,1.60
2023-05-04T07:30:21.303Z,1.40
2023-05-04T07:32:48.378Z,3.00
2023-05-04T07:35:15.501Z,2.00
2023-05-04T07:37:42.448Z,1.20
2023-05-04T07:40:10.588Z,1.40
2023-05-04T07:42:37.677Z,1.50
2023-05-04T07:45:05.186Z,1.50
2023-05-04T07:47:32.270Z,1.60
2023-05-04T07:49:59.263Z,1.90
2023-05-04T07:52:26.327Z,1.60
2023-05-04T07:54:53.817Z,2.30
2023-05-04T07:57:21.274Z,2.40
2023-05-04T07:59:48.320Z,1.60
2023-05-04T08:02:15.311Z,1.80
2023-05-04T08:04:42.312Z,1.90
2023-05-04T08:07:09.224Z,2.00
2023-05-04T08:09:36.208Z,2.10
2023-05-04T08:12:04.552Z,1.40
2023-05-04T08:14:31.538Z,1.50
2023-05-04T08:17:00.807Z,1.10
2023-05-04T08:19:27.772Z,1.30
2023-05-04T08:21:54.906Z,1.50
2023-05-04T08:24:50.834Z,1.60
2023-05-04T08:27:22.304Z,1.10
2023-05-04T08:29:55.421Z,1.00
2023-05-04T08:32:24.560Z,1.60
2023-05-04T08:34:52.340Z,1.20
2023-05-04T08:37:20.289Z,1.80
2023-05-04T08:39:47.279Z,1.70
2023-05-04T08:42:14.448Z,1.40
2023-05-04T08:44:43.379Z,1.10
2023-05-04T08:47:11.159Z,1.50
2023-05-04T08:49:38.729Z,1.40
2023-05-04T08:52:06.212Z,0.80
2023-05-04T08:54:33.264Z,1.70
2023-05-04T08:57:00.672Z,1.90
2023-05-04T08:59:27.716Z,2.20
2023-05-04T09:01:58.870Z,1.90
2023-05-04T09:04:29.319Z,1.90
2023-05-04T09:06:58.033Z,1.70
2023-05-04T09:09:26.829Z,0.80
2023-05-04T09:11:53.864Z,1.30
2023-05-04T09:14:24.031Z,1.40
2023-05-04T09:16:51.318Z,2.10
2023-05-04T09:19:19.382Z,1.70
2023-05-04T09:21:47.973Z,1.80
2023-05-04T09:24:28.500Z,1.90
2023-05-04T09:26:55.529Z,1.60
2023-05-04T09:29:25.828Z,1.80
2023-05-04T09:31:52.916Z,1.60
2023-05-04T09:34:21.593Z,0.70
2023-05-04T09:37:01.914Z,1.10
2023-05-04T09:39:29.459Z,2.20
2023-05-04T09:41:56.866Z,1.50
2023-05-04T09:44:25.885Z,0.80
2023-05-04T09:46:57.415Z,1.60
2023-05-04T09:49:32.853Z,1.20
2023-05-04T09:52:02.688Z,1.90
2023-05-04T09:54:32.632Z,1.40
2023-05-04T09:57:12.527Z,1.80
2023-05-04T09:59:40.041Z,1.50
2023-05-04T10:02:21.089Z,1.90
2023-05-04T10:04:53.116Z,1.40
2023-05-04T10:07:21.091Z,2.10
2023-05-04T10:09:49.206Z,2.00
2023-05-04T10:12:16.261Z,1.50
2023-05-04T10:14:47.006Z,1.50
2023-05-04T10:17:34.667Z,1.30
2023-05-04T10:20:07.554Z,2.20
2023-05-04T10:22:43.548Z,1.40
2023-05-04T10:25:24.822Z,1.40
2023-05-04T10:27:54.832Z,1.90
2023-05-04T10:30:21.991Z,1.60
2023-05-04T10:32:58.285Z,1.70
2023-05-04T10:35:25.450Z,1.70
2023-05-04T10:37:56.373Z,2.10
2023-05-04T10:40:39.090Z,1.40
2023-05-04T10:43:11.450Z,1.70
2023-05-04T10:45:42.045Z,1.70
2023-05-04T10:48:09.751Z,2.40
2023-05-04T10:50:48.254Z,2.40
2023-05-04T10:53:16.780Z,2.40
2023-05-04T10:55:47.916Z,2.80
2023-05-04T10:58:16.925Z,2.00
2023-05-04T11:00:49.335Z,2.60
2023-05-04T11:03:16.888Z,3.20
2023-05-04T11:05:50.891Z,2.20
2023-05-04T11:08:24.822Z,2.30
2023-05-04T11:11:07.640Z,2.10
2023-05-04T11:13:35.258Z,2.30
2023-05-04T11:16:02.454Z,1.50
2023-05-04T11:18:31.171Z,2.40
2023-05-04T11:20:58.378Z,2.30
2023-05-04T11:23:25.415Z,1.60
2023-05-04T11:25:55.565Z,1.90
2023-05-04T11:28:36.726Z,2.90
2023-05-04T11:31:14.003Z,2.10
2023-05-04T11:33:46.528Z,2.00
2023-05-04T11:36:13.578Z,2.10
2023-05-04T11:38:40.628Z,2.60
2023-05-04T11:41:08.797Z,1.70
2023-05-04T11:43:36.971Z,2.60
2023-05-04T11:46:04.906Z,1.70
2023-05-04T11:48:32.703Z,1.90
2023-05-04T11:50:59.801Z,2.60
2023-05-04T11:53:26.914Z,2.40
2023-05-04T11:55:54.574Z,2.80
2023-05-04T11:58:25.666Z,2.50
2023-05-04T12:00:58.863Z,2.30
2023-05-04T12:03:43.970Z,2.00
2023-05-04T12:06:15.672Z,1.50
2023-05-04T12:08:42.653Z,2.90
2023-05-04T12:11:16.616Z,3.20
2023-05-04T12:13:44.568Z,3.30
2023-05-04T12:16:13.773Z,2.20
2023-05-04T12:18:40.765Z,2.70
2023-05-04T12:21:15.008Z,3.40
2023-05-04T12:23:42.295Z,3.50
2023-05-04T12:26:09.811Z,2.30
2023-05-04T12:28:37.160Z,1.70
2023-05-04T12:31:07.504Z,2.80
2023-05-04T12:33:34.520Z,2.70
2023-05-04T12:36:02.108Z,2.10
2023-05-04T12:38:29.559Z,2.00
2023-05-04T12:40:59.194Z,1.30
2023-05-04T12:43:26.983Z,2.20
2023-05-04T12:45:54.039Z,2.40
2023-05-04T12:48:21.137Z,2.50
2023-05-04T12:50:49.385Z,3.70
2023-05-04T12:53:18.174Z,2.10
2023-05-04T12:55:45.731Z,3.10
2023-05-04T12:58:12.956Z,2.80
2023-05-04T13:00:40.403Z,3.00
2023-05-04T13:03:08.092Z,3.00
2023-05-04T13:05:35.245Z,3.00
2023-05-04T13:08:02.547Z,3.00
2023-05-04T13:10:30.467Z,2.10
2023-05-04T13:12:57.515Z,2.90
2023-05-04T13:15:24.629Z,3.00
2023-05-04T13:17:56.395Z,3.50
2023-05-04T13:20:23.324Z,2.60
2023-05-04T13:22:51.840Z,2.20
2023-05-04T13:25:19.090Z,2.90
2023-05-04T13:27:46.255Z,3.30
2023-05-04T13:30:13.749Z,3.20
2023-05-04T13:32:44.003Z,2.80
2023-05-04T13:35:11.013Z,2.40
2023-05-04T13:37:38.522Z,3.60
2023-05-04T13:40:06.187Z,2.80
2023-05-04T13:42:35.637Z,3.00
2023-05-04T13:45:04.615Z,4.00
2023-05-04T13:47:33.925Z,2.70
2023-05-04T13:50:02.191Z,2.80
2023-05-04T13:52:29.130Z,2.70
2023-05-04T13:54:56.243Z,3.60
2023-05-04T13:57:23.332Z,2.70
2023-05-04T14:00:05.230Z,3.60
2023-05-04T14:02:42.539Z,2.60
2023-05-04T14:05:10.253Z,2.70
2023-05-04T14:07:38.086Z,2.30
2023-05-04T14:10:05.888Z,2.20
2023-05-04T14:12:33.215Z,3.50
2023-05-04T14:15:01.416Z,2.70
2023-05-04T14:17:28.376Z,3.00
2023-05-04T14:19:56.538Z,3.20
2023-05-04T14:22:23.684Z,3.50
2023-05-04T14:24:51.213Z,2.00
2023-05-04T14:27:18.133Z,3.10
2023-05-04T14:29:47.657Z,3.60
2023-05-04T14:32:15.040Z,2.70
2023-05-04T14:34:42.157Z,2.00
2023-05-04T14:37:09.222Z,3.00
2023-05-04T14:39:36.680Z,3.20
2023-05-04T14:42:04.921Z,2.30
2023-05-04T14:44:32.084Z,2.10
2023-05-04T14:46:58.993Z,2.70
2023-05-04T14:49:36.617Z,2.10
2023-05-04T14:52:04.152Z,2.90
2023-05-04T14:54:31.148Z,1.70
2023-05-04T14:56:59.117Z,2.10
2023-05-04T14:59:26.321Z,1.90
2023-05-04T15:01:55.412Z,2.00
2023-05-04T15:04:22.901Z,3.10
2023-05-04T15:06:49.949Z,1.90
2023-05-04T15:09:16.990Z,2.60
2023-05-04T15:11:44.037Z,2.90
2023-05-04T15:14:11.354Z,1.70
2023-05-04T15:16:38.529Z,2.50
2023-05-04T15:19:05.910Z,2.20
2023-05-04T15:21:33.244Z,1.80
2023-05-04T15:24:02.871Z,2.60
2023-05-04T15:26:31.177Z,2.50
2023-05-04T15:28:58.169Z,2.20
2023-05-04T15:31:25.136Z,2.50
2023-05-04T15:33:52.287Z,2.60
2023-05-04T15:36:19.241Z,2.60
2023-05-04T15:38:46.407Z,1.90
2023-05-04T15:41:14.468Z,1.80
2023-05-04T15:43:41.673Z,2.60
2023-05-04T15:46:08.720Z,2.10
2023-05-04T15:48:35.773Z,2.70
2023-05-04T15:51:02.859Z,2.50
2023-05-04T15:53:29.878Z,3.70
2023-05-04T15:55:57.010Z,2.30
2023-05-04T15:58:24.064Z,3.30
2023-05-04T16:00:51.145Z,2.50
2023-05-04T16:03:18.293Z,2.00
2023-05-04T16:05:45.437Z,2.90
2023-05-04T16:08:12.318Z,3.10
2023-05-04T16:10:39.215Z,1.60
2023-05-04T16:13:06.249Z,1.90
2023-05-04T16:15:33.370Z,2.80
2023-05-04T16:18:00.434Z,2.40
2023-05-04T16:20:28.567Z,2.00
2023-05-04T16:22:55.806Z,2.60
2023-05-04T16:25:22.744Z,4.00
2023-05-04T16:27:49.734Z,2.90
2023-05-04T16:30:17.497Z,1.00
2023-05-04T16:32:44.886Z,2.20
2023-05-04T16:35:12.096Z,1.90
2023-05-04T16:37:39.312Z,1.80
2023-05-04T16:40:14.454Z,1.90
2023-05-04T16:45:11.119Z,1.70
2023-05-04T16:47:38.158Z,1.50
2023-05-04T16:50:06.049Z,1.90
2023-05-04T16:52:33.688Z,1.50
2023-05-04T16:55:00.972Z,2.70
2023-05-04T16:57:28.219Z,2.30
2023-05-04T16:59:56.158Z,2.50
2023-05-04T17:02:23.172Z,1.90
2023-05-04T17:04:50.169Z,1.90
2023-05-04T17:07:17.225Z,2.40
2023-05-04T17:09:44.201Z,1.90
2023-05-04T17:12:11.416Z,2.20
2023-05-04T17:14:38.458Z,2.20
2023-05-04T17:17:05.651Z,1.70
2023-05-04T17:19:34.475Z,1.90
2023-05-04T17:22:01.917Z,1.50
2023-05-04T17:24:28.931Z,1.00
2023-05-04T17:26:55.948Z,1.50
2023-05-04T17:29:22.894Z,1.40
2023-05-04T17:31:49.877Z,1.80
2023-05-04T17:34:17.959Z,1.70
2023-05-04T17:36:46.164Z,2.60
2023-05-04T17:39:13.226Z,2.40
2023-05-04T17:41:41.099Z,1.70
2023-05-04T17:44:07.986Z,1.50
2023-05-04T17:46:38.622Z,2.10
2023-05-04T17:49:05.968Z,1.50
2023-05-04T17:51:32.962Z,1.90
2023-05-04T17:53:59.907Z,1.40
2023-05-04T17:56:26.953Z,1.80
2023-05-04T17:58:54.008Z,2.10
2023-05-04T18:01:21.509Z,1.50
2023-05-04T18:03:48.467Z,1.30
2023-05-04T18:06:16.494Z,1.90
2023-05-04T18:08:43.916Z,2.50
2023-05-04T18:11:12.131Z,1.60
2023-05-04T18:13:39.139Z,1.50
2023-05-04T18:16:06.301Z,1.50
2023-05-04T18:18:33.295Z,2.40
2023-05-04T18:21:00.939Z,2.30
2023-05-04T18:23:27.871Z,1.00
2023-05-04T18:25:54.853Z,2.20
2023-05-04T18:28:21.841Z,1.60
2023-05-04T18:30:48.736Z,1.40
2023-05-04T18:33:16.231Z,1.70
2023-05-04T18:35:43.210Z,1.70
2023-05-04T18:38:10.743Z,1.10
2023-05-04T18:40:37.775Z,1.00
2023-05-04T18:43:04.928Z,1.80
2023-05-04T18:45:31.993Z,1.70
2023-05-04T18:47:58.961Z,1.90
2023-05-04T18:50:26.063Z,1.90
2023-05-04T18:52:54.335Z,2.20
2023-05-04T18:55:21.385Z,1.50
2023-05-04T18:57:50.761Z,1.20
2023-05-04T19:00:18.253Z,1.30
2023-05-04T19:02:45.318Z,1.10
2023-05-04T19:05:14.629Z,1.20
2023-05-04T19:07:42.043Z,1.30
2023-05-04T19:10:09.816Z,1.90
2023-05-04T19:12:41.684Z,1.10
2023-05-04T19:15:09.954Z,0.60
2023-05-04T19:17:37.193Z,1.50
2023-05-04T19:20:04.998Z,1.30
2023-05-04T19:22:32.203Z,1.30
2023-05-04T19:24:59.251Z,2.00
2023-05-04T19:27:26.455Z,1.40
2023-05-04T19:29:53.445Z,1.90
2023-05-04T19:32:24.847Z,1.80
2023-05-04T19:34:52.333Z,1.60
2023-05-04T19:37:19.361Z,2.20
2023-05-04T19:39:46.338Z,3.00
2023-05-04T19:42:13.264Z,1.50
2023-05-04T19:44:40.178Z,2.20
2023-05-04T19:47:07.170Z,1.80
2023-05-04T19:49:34.547Z,2.40
2023-05-04T19:52:01.570Z,2.00
2023-05-04T19:54:28.576Z,1.30
2023-05-04T19:56:55.543Z,1.60
2023-05-04T19:59:22.430Z,1.90
2023-05-04T20:01:49.385Z,1.50
2023-05-04T20:04:16.338Z,1.40
2023-05-04T20:06:43.201Z,1.00
2023-05-04T20:09:10.684Z,1.30
2023-05-04T20:11:38.303Z,0.80
2023-05-04T20:14:06.521Z,1.70
2023-05-04T20:16:33.913Z,1.60
2023-05-04T20:19:03.558Z,1.30
2023-05-04T20:21:30.929Z,0.70
2023-05-04T20:23:57.976Z,0.90
2023-05-04T20:26:24.844Z,1.40
2023-05-04T20:28:51.759Z,1.30
2023-05-04T20:31:19.381Z,1.60
2023-05-04T20:33:46.362Z,1.50
2023-05-04T20:36:13.248Z,1.50
2023-05-04T20:38:40.154Z,1.20
2023-05-04T20:41:07.948Z,1.10
2023-05-04T20:43:38.040Z,1.10
2023-05-04T20:46:04.994Z,1.50
2023-05-04T20:48:32.138Z,0.70
2023-05-04T20:51:12.818Z,1.30
2023-05-04T20:53:41.270Z,1.50
2023-05-04T20:56:08.189Z,2.00
2023-05-04T20:58:35.262Z,1.90
2023-05-04T21:01:06.122Z,2.00
2023-05-04T21:03:33.712Z,1.30
2023-05-04T21:06:01.523Z,1.40
2023-05-04T21:08:28.563Z,1.40
2023-05-04T21:10:55.645Z,2.10
2023-05-04T21:13:22.755Z,2.10
2023-05-04T21:15:49.682Z,1.50
2023-05-04T21:18:18.516Z,2.30
2023-05-04T21:20:45.743Z,1.30
2023-05-04T21:23:12.681Z,1.40
2023-05-04T21:25:39.545Z,1.50
2023-05-04T21:28:06.474Z,1.80
2023-05-04T21:30:33.409Z,1.40
2023-05-04T21:33:00.813Z,1.50
2023-05-04T21:35:31.087Z,1.60
2023-05-04T21:37:58.985Z,1.20
2023-05-04T21:40:27.576Z,1.00
2023-05-04T21:42:54.477Z,0.90
2023-05-04T21:45:21.547Z,1.80
2023-05-04T21:47:48.879Z,1.40
2023-05-04T21:50:16.440Z,1.20
2023-05-04T21:52:43.380Z,1.60
2023-05-04T21:55:10.288Z,1.40
2023-05-04T21:57:37.494Z,1.60
2023-05-04T22:00:12.053Z,2.50
2023-05-04T22:02:39.484Z,1.80
2023-05-04T22:05:06.698Z,1.90
2023-05-04T22:07:36.038Z,1.30
2023-05-04T22:10:04.677Z,1.80
2023-05-04T22:12:31.784Z,2.00
2023-05-04T22:14:58.779Z,1.10
2023-05-04T22:17:25.931Z,1.40
2023-05-04T22:19:53.280Z,1.70
2023-05-04T22:22:20.373Z,2.00
2023-05-04T22:24:47.368Z,1.40
2023-05-04T22:27:14.315Z,1.40
2023-05-04T22:29:41.256Z,1.70
2023-05-04T22:32:08.123Z,1.90
2023-05-04T22:34:34.960Z,1.00
2023-05-04T22:37:03.421Z,0.80
2023-05-04T22:39:30.473Z,2.20
2023-05-04T22:41:57.422Z,1.60
2023-05-04T22:44:24.362Z,1.50
2023-05-04T22:46:51.295Z,0.90
2023-05-04T22:49:18.447Z,1.30
2023-05-04T22:51:45.491Z,1.30
2023-05-04T22:54:12.397Z,0.80
2023-05-04T22:56:39.485Z,1.20
2023-05-04T22:59:06.528Z,1.60
2023-05-04T23:01:34.476Z,1.30
2023-05-04T23:04:01.664Z,1.50
2023-05-04T23:06:28.908Z,1.00
2023-05-04T23:08:55.836Z,1.80
2023-05-04T23:11:24.048Z,2.30
2023-05-04T23:13:51.083Z,0.90
2023-05-04T23:16:18.279Z,1.20
2023-05-04T23:18:45.350Z,1.30
2023-05-04T23:21:12.279Z,1.10
2023-05-04T23:23:39.241Z,1.30
2023-05-04T23:26:06.180Z,1.10
2023-05-04T23:28:33.037Z,1.20
2023-05-04T23:30:59.916Z,1.60
2023-05-04T23:33:26.918Z,1.70
2023-05-04T23:35:55.419Z,1.30
2023-05-04T23:38:23.061Z,1.60
2023-05-04T23:40:50.246Z,1.60
2023-05-04T23:43:17.251Z,1.80
2023-05-04T23:45:44.134Z,0.90
2023-05-04T23:48:10.986Z,1.20
2023-05-04T23:50:37.831Z,1.30
2023-05-04T23:53:04.818Z,1.20
2023-05-04T23:55:32.073Z,1.40
2023-05-04T23:57:59.123Z,1.30
